createdAt,value
2018-12-25T00:02:11.952Z,37.38
2018-12-25T00:04:41.117Z,31.68
2018-12-25T00:07:10.316Z,31.90
2018-12-25T00:09:39.478Z,32.45
2018-12-25T00:12:08.784Z,31.93
2018-12-25T00:14:38.059Z,29.15
2018-12-25T00:17:07.292Z,26.57
2018-12-25T00:19:36.523Z,26.33
2018-12-25T00:22:05.701Z,24.55
2018-12-25T00:24:34.876Z,27.85
2018-12-25T00:27:04.111Z,24.10
2018-12-25T00:29:33.336Z,25.95
2018-12-25T00:32:02.571Z,20.20
2018-12-25T00:34:31.740Z,19.48
2018-12-25T00:37:01.014Z,19.75
2018-12-25T00:39:30.252Z,20.60
2018-12-25T00:41:59.426Z,19.80
2018-12-25T00:44:28.605Z,20.88
2018-12-25T00:46:57.831Z,20.05
2018-12-25T00:49:27.065Z,20.97
2018-12-25T00:51:56.405Z,19.32
2018-12-25T00:54:25.542Z,20.00
2018-12-25T00:56:54.720Z,18.62
2018-12-25T00:59:23.991Z,19.45
2018-12-25T01:01:53.237Z,16.27
2018-12-25T01:04:22.635Z,19.05
2018-12-25T01:06:51.855Z,19.98
2018-12-25T01:09:21.096Z,16.42
2018-12-25T01:11:50.264Z,16.37
2018-12-25T01:14:19.535Z,17.30
2018-12-25T01:16:48.854Z,15.32
2018-12-25T01:19:23.330Z,17.23
2018-12-25T01:21:48.921Z,17.50
2018-12-25T01:24:18.144Z,14.10
2018-12-25T01:26:47.507Z,18.90
2018-12-25T01:29:16.683Z,19.60
2018-12-25T01:31:45.940Z,17.80
2018-12-25T01:34:15.104Z,18.75
2018-12-25T01:36:44.294Z,17.95
2018-12-25T01:39:13.452Z,18.75
2018-12-25T01:41:42.621Z,18.98
2018-12-25T01:44:11.829Z,17.48
2018-12-25T01:46:41.063Z,18.77
2018-12-25T01:49:10.231Z,17.55
2018-12-25T01:51:39.665Z,18.02
2018-12-25T01:54:08.861Z,16.70
2018-12-25T01:56:38.059Z,17.15
2018-12-25T01:59:07.316Z,16.85
2018-12-25T02:01:36.459Z,15.53
2018-12-25T02:04:05.631Z,16.12
2018-12-25T02:06:35.003Z,15.25
2018-12-25T02:09:06.269Z,16.65
2018-12-25T02:11:35.436Z,16.42
2018-12-25T02:14:04.705Z,15.25
2018-12-25T02:16:33.931Z,16.95
2018-12-25T02:19:03.089Z,17.23
2018-12-25T02:21:32.361Z,18.50
2018-12-25T02:24:01.599Z,15.75
2018-12-25T02:26:30.768Z,18.73
2018-12-25T02:28:59.969Z,18.48
2018-12-25T02:31:29.129Z,18.02
2018-12-25T02:33:58.367Z,17.25
2018-12-25T02:36:27.566Z,17.30
2018-12-25T02:38:56.737Z,17.87
2018-12-25T02:41:26.004Z,19.12
2018-12-25T02:43:55.415Z,17.37
2018-12-25T02:46:24.571Z,16.25
2018-12-25T02:48:53.892Z,15.88
2018-12-25T02:51:23.091Z,15.63
2018-12-25T02:53:52.256Z,16.07
2018-12-25T02:56:21.524Z,16.17
2018-12-25T02:58:50.804Z,15.53
2018-12-25T03:01:20.048Z,17.23
2018-12-25T03:03:49.359Z,14.55
2018-12-25T03:06:18.930Z,15.83
2018-12-25T03:08:48.161Z,17.67
2018-12-25T03:11:17.388Z,15.70
2018-12-25T03:13:46.799Z,16.87
2018-12-25T03:16:15.966Z,15.05
2018-12-25T03:18:45.203Z,13.90
2018-12-25T03:21:14.463Z,15.75
2018-12-25T03:23:43.694Z,15.85
2018-12-25T03:26:13.005Z,15.03
2018-12-25T03:28:42.209Z,15.35
2018-12-25T03:31:11.366Z,14.10
2018-12-25T03:33:40.665Z,14.70
2018-12-25T03:36:09.933Z,12.47
2018-12-25T03:38:39.074Z,14.65
2018-12-25T03:41:08.316Z,13.58
2018-12-25T03:43:37.515Z,14.05
2018-12-25T03:46:06.836Z,13.20
2018-12-25T03:48:36.076Z,13.78
2018-12-25T03:51:05.362Z,14.60
2018-12-25T03:53:34.604Z,12.70
2018-12-25T03:56:03.822Z,13.22
2018-12-25T03:58:33.109Z,13.95
2018-12-25T04:01:02.285Z,13.00
2018-12-25T04:03:31.700Z,14.70
2018-12-25T04:06:00.923Z,13.68
2018-12-25T04:08:30.100Z,13.55
2018-12-25T04:10:59.343Z,12.43
2018-12-25T04:13:28.548Z,14.10
2018-12-25T04:15:57.779Z,11.63
2018-12-25T04:18:27.049Z,11.68
2018-12-25T04:20:56.242Z,14.50
2018-12-25T04:23:25.510Z,13.98
2018-12-25T04:25:54.722Z,12.15
2018-12-25T04:28:23.900Z,13.60
2018-12-25T04:30:53.059Z,12.90
2018-12-25T04:33:22.363Z,12.30
2018-12-25T04:35:51.556Z,12.40
2018-12-25T04:38:20.718Z,11.78
2018-12-25T04:40:49.884Z,13.38
2018-12-25T04:43:19.128Z,13.72
2018-12-25T04:45:48.290Z,13.22
2018-12-25T04:48:17.462Z,13.10
2018-12-25T04:50:46.665Z,14.05
2018-12-25T04:53:15.838Z,15.25
2018-12-25T04:55:44.991Z,14.25
2018-12-25T04:58:14.245Z,14.83
2018-12-25T05:00:43.549Z,13.85
2018-12-25T05:03:12.720Z,14.50
2018-12-25T05:05:41.915Z,13.10
2018-12-25T05:08:12.358Z,14.33
2018-12-25T05:10:41.516Z,14.60
2018-12-25T05:13:10.738Z,14.43
2018-12-25T05:15:39.940Z,13.43
2018-12-25T05:18:09.166Z,14.03
2018-12-25T05:20:38.373Z,14.47
2018-12-25T05:23:07.530Z,14.38
2018-12-25T05:25:36.772Z,13.50
2018-12-25T05:28:05.952Z,14.03
2018-12-25T05:30:35.180Z,12.80
2018-12-25T05:33:04.351Z,14.05
2018-12-25T05:35:33.728Z,13.78
2018-12-25T05:38:02.943Z,15.35
2018-12-25T05:40:32.323Z,12.37
2018-12-25T05:43:01.516Z,12.03
2018-12-25T05:45:30.755Z,13.75
2018-12-25T05:48:00.055Z,12.65
2018-12-25T05:50:30.876Z,13.15
2018-12-25T05:53:00.083Z,14.03
2018-12-25T05:55:29.305Z,13.80
2018-12-25T05:57:58.696Z,12.20
2018-12-25T06:00:29.968Z,12.75
2018-12-25T06:02:59.130Z,12.73
2018-12-25T06:05:28.307Z,11.85
2018-12-25T06:07:57.513Z,13.03
2018-12-25T06:10:26.666Z,13.43
2018-12-25T06:12:55.846Z,13.65
2018-12-25T06:15:25.100Z,11.22
2018-12-25T06:17:54.312Z,12.75
2018-12-25T06:20:23.528Z,13.30
2018-12-25T06:22:53.112Z,12.45
2018-12-25T06:25:22.278Z,13.58
2018-12-25T06:27:54.230Z,12.28
2018-12-25T06:30:23.390Z,12.20
2018-12-25T06:32:52.642Z,13.78
2018-12-25T06:35:21.913Z,11.70
2018-12-25T06:37:51.073Z,14.45
2018-12-25T06:40:20.299Z,14.15
2018-12-25T06:42:49.494Z,14.07
2018-12-25T06:45:18.642Z,14.20
2018-12-25T06:47:47.884Z,12.80
2018-12-25T06:50:17.098Z,11.25
2018-12-25T06:52:46.276Z,12.40
2018-12-25T06:55:15.476Z,12.15
2018-12-25T06:57:44.748Z,12.13
2018-12-25T07:00:13.914Z,12.82
2018-12-25T07:02:43.055Z,14.15
2018-12-25T07:05:12.251Z,12.68
2018-12-25T07:07:41.427Z,13.22
2018-12-25T07:10:10.668Z,13.35
2018-12-25T07:12:39.879Z,13.30
2018-12-25T07:15:09.109Z,14.68
2018-12-25T07:17:39.779Z,13.93
2018-12-25T07:20:09.038Z,12.05
2018-12-25T07:22:38.196Z,11.80
2018-12-25T07:25:07.437Z,12.05
2018-12-25T07:27:36.612Z,12.78
2018-12-25T07:30:06.272Z,13.53
2018-12-25T07:32:35.723Z,12.28
2018-12-25T07:35:04.936Z,12.80
2018-12-25T07:37:34.376Z,14.20
2018-12-25T07:40:03.606Z,13.83
2018-12-25T07:42:32.873Z,14.30
2018-12-25T07:45:02.041Z,13.88
2018-12-25T07:47:32.739Z,12.50
2018-12-25T07:50:01.938Z,14.10
2018-12-25T07:52:31.120Z,13.88
2018-12-25T07:55:00.272Z,14.18
2018-12-25T07:57:29.558Z,13.32
2018-12-25T07:59:58.849Z,14.63
2018-12-25T08:02:28.022Z,17.12
2018-12-25T08:04:57.275Z,13.45
2018-12-25T08:07:26.802Z,13.95
2018-12-25T08:09:55.966Z,13.32
2018-12-25T08:12:25.197Z,13.00
2018-12-25T08:14:54.432Z,15.23
2018-12-25T08:17:25.662Z,13.20
2018-12-25T08:19:54.852Z,14.55
2018-12-25T08:22:24.014Z,13.98
2018-12-25T08:24:53.611Z,13.48
2018-12-25T08:27:22.834Z,11.50
2018-12-25T08:29:51.996Z,12.55
2018-12-25T08:32:24.370Z,11.40
2018-12-25T08:34:53.691Z,13.08
2018-12-25T08:37:22.920Z,13.22
2018-12-25T08:39:52.121Z,14.05
2018-12-25T08:42:21.347Z,14.23
2018-12-25T08:44:51.460Z,16.70
2018-12-25T08:47:20.623Z,19.85
2018-12-25T08:49:50.327Z,18.70
2018-12-25T08:52:19.788Z,18.17
2018-12-25T08:54:48.969Z,18.67
2018-12-25T08:57:18.403Z,18.05
2018-12-25T08:59:47.724Z,21.25
2018-12-25T09:02:16.958Z,19.30
2018-12-25T09:04:48.932Z,17.85
2018-12-25T09:10:07.477Z,15.60
2018-12-25T09:12:36.722Z,18.65
2018-12-25T09:15:06.432Z,21.07
2018-12-25T09:17:35.709Z,21.80
2018-12-25T09:20:05.508Z,21.02
2018-12-25T09:22:34.733Z,18.80
2018-12-25T09:25:04.185Z,20.10
2018-12-25T09:27:33.442Z,19.92
2018-12-25T09:30:03.138Z,25.17
2018-12-25T09:32:33.545Z,24.80
2018-12-25T09:35:04.080Z,22.17
2018-12-25T09:37:33.237Z,23.87
2018-12-25T09:40:02.428Z,20.52
2018-12-25T09:42:31.670Z,17.15
2018-12-25T09:45:00.843Z,16.15
2018-12-25T09:47:30.051Z,17.20
2018-12-25T09:49:59.215Z,14.68
2018-12-25T09:52:28.409Z,16.05
2018-12-25T09:54:57.696Z,14.30
2018-12-25T09:57:26.842Z,14.35
2018-12-25T09:59:56.008Z,15.55
2018-12-25T10:02:25.221Z,15.32
2018-12-25T10:04:56.546Z,14.53
2018-12-25T10:07:25.374Z,14.68
2018-12-25T10:09:54.715Z,14.35
2018-12-25T10:12:24.036Z,13.60
2018-12-25T10:14:53.265Z,13.35
2018-12-25T10:17:22.466Z,12.82
2018-12-25T10:19:51.741Z,15.83
2018-12-25T10:22:20.967Z,14.20
2018-12-25T10:24:51.412Z,13.45
2018-12-25T10:27:20.879Z,11.68
2018-12-25T10:29:50.446Z,13.00
2018-12-25T10:32:19.771Z,11.60
2018-12-25T10:34:48.943Z,11.22
2018-12-25T10:37:37.379Z,13.30
2018-12-25T10:40:07.183Z,11.78
2018-12-25T10:42:36.422Z,13.15
2018-12-25T10:45:05.811Z,13.28
2018-12-25T10:47:34.971Z,12.85
2018-12-25T10:50:04.290Z,13.40
2018-12-25T10:52:33.534Z,11.20
2018-12-25T10:55:02.889Z,13.60
2018-12-25T10:57:32.219Z,12.60
2018-12-25T11:00:01.462Z,13.43
2018-12-25T11:02:30.792Z,13.32
2018-12-25T11:05:00.077Z,11.10
2018-12-25T11:07:29.420Z,12.25
2018-12-25T11:09:58.572Z,10.15
2018-12-25T11:12:27.771Z,13.08
2018-12-25T11:14:56.961Z,11.60
2018-12-25T11:17:26.124Z,11.45
2018-12-25T11:19:55.312Z,11.80
2018-12-25T11:22:24.622Z,11.85
2018-12-25T11:24:53.940Z,13.90
2018-12-25T11:27:23.121Z,11.50
2018-12-25T11:29:52.454Z,13.48
2018-12-25T11:32:21.732Z,12.33
2018-12-25T11:34:50.997Z,11.18
2018-12-25T11:37:20.217Z,11.68
2018-12-25T11:39:49.782Z,12.93
2018-12-25T11:42:21.269Z,10.18
2018-12-25T11:44:50.502Z,11.38
2018-12-25T11:47:19.747Z,9.80
2018-12-25T11:49:49.063Z,10.38
2018-12-25T11:52:18.243Z,10.85
2018-12-25T11:54:47.543Z,11.08
2018-12-25T11:57:17.135Z,12.05
2018-12-25T11:59:46.340Z,10.05
2018-12-25T12:02:17.204Z,10.75
2018-12-25T12:04:46.715Z,9.43
2018-12-25T12:07:15.996Z,11.78
2018-12-25T12:09:45.298Z,11.22
2018-12-25T12:12:14.498Z,12.00
2018-12-25T12:14:43.787Z,10.90
2018-12-25T12:17:12.959Z,9.93
2018-12-25T12:19:42.120Z,10.10
2018-12-25T12:22:11.297Z,10.25
2018-12-25T12:24:40.525Z,9.18
2018-12-25T12:27:09.677Z,8.83
2018-12-25T12:29:39.039Z,9.80
2018-12-25T12:32:08.231Z,8.33
2018-12-25T12:34:37.383Z,10.05
2018-12-25T12:37:06.646Z,10.43
2018-12-25T12:39:35.834Z,9.43
2018-12-25T12:42:05.066Z,9.23
2018-12-25T12:44:34.338Z,9.68
2018-12-25T12:47:03.871Z,10.58
2018-12-25T12:49:33.101Z,9.98
2018-12-25T12:52:02.302Z,10.35
2018-12-25T12:54:31.544Z,10.75
2018-12-25T12:57:00.743Z,10.00
2018-12-25T12:59:29.934Z,9.70
2018-12-25T13:01:59.247Z,9.33
2018-12-25T13:04:28.725Z,11.35
2018-12-25T13:06:57.917Z,8.68
2018-12-25T13:09:27.081Z,10.75
2018-12-25T13:11:56.451Z,9.38
2018-12-25T13:14:25.717Z,8.90
2018-12-25T13:16:54.953Z,9.65
2018-12-25T13:19:24.194Z,11.00
2018-12-25T13:21:53.436Z,11.00
2018-12-25T13:24:24.548Z,11.18
2018-12-25T13:26:53.676Z,9.80
2018-12-25T13:29:22.885Z,9.68
2018-12-25T13:31:52.313Z,9.98
2018-12-25T13:34:21.472Z,9.70
2018-12-25T13:36:50.666Z,10.90
2018-12-25T13:39:19.947Z,10.50
2018-12-25T13:41:49.481Z,9.73
2018-12-25T13:44:18.723Z,9.45
2018-12-25T13:46:51.675Z,9.78
2018-12-25T13:49:18.844Z,9.98
2018-12-25T13:51:48.035Z,11.97
2018-12-25T13:54:17.382Z,11.45
2018-12-25T13:56:46.582Z,12.35
2018-12-25T13:59:15.851Z,11.57
2018-12-25T14:01:45.085Z,11.70
2018-12-25T14:04:14.335Z,12.58
2018-12-25T14:06:43.703Z,11.45
2018-12-25T14:09:12.871Z,13.15
2018-12-25T14:11:42.059Z,11.65
2018-12-25T14:14:11.271Z,12.20
2018-12-25T14:16:40.507Z,13.68
2018-12-25T14:19:09.684Z,11.15
2018-12-25T14:21:38.892Z,13.38
2018-12-25T14:24:08.062Z,12.20
2018-12-25T14:26:37.307Z,13.15
2018-12-25T14:29:06.524Z,9.00
2018-12-25T14:31:35.714Z,11.83
2018-12-25T14:34:04.919Z,13.45
2018-12-25T14:36:34.182Z,12.93
2018-12-25T14:39:04.807Z,12.55
2018-12-25T14:41:34.055Z,13.88
2018-12-25T14:44:05.388Z,16.60
2018-12-25T14:46:34.451Z,17.02
2018-12-25T14:49:03.634Z,17.00
2018-12-25T14:51:32.921Z,14.68
2018-12-25T14:54:02.268Z,14.10
2018-12-25T14:56:31.429Z,14.23
2018-12-25T14:59:00.670Z,13.03
2018-12-25T15:01:29.917Z,14.70
2018-12-25T15:03:59.080Z,14.38
2018-12-25T15:06:28.283Z,13.98
2018-12-25T15:08:57.619Z,16.27
2018-12-25T15:11:26.795Z,15.60
2018-12-25T15:13:55.989Z,13.85
2018-12-25T15:16:28.373Z,13.35
2018-12-25T15:18:57.599Z,15.23
2018-12-25T15:21:26.874Z,14.95
2018-12-25T15:23:56.258Z,14.38
2018-12-25T15:26:25.594Z,13.85
2018-12-25T15:28:54.785Z,12.80
2018-12-25T15:31:26.361Z,14.23
2018-12-25T15:33:55.529Z,15.93
2018-12-25T15:36:24.915Z,14.10
2018-12-25T15:38:54.199Z,16.02
2018-12-25T15:41:23.648Z,16.85
2018-12-25T15:43:52.975Z,15.72
2018-12-25T15:46:22.298Z,15.65
2018-12-25T15:48:51.476Z,15.75
2018-12-25T15:51:20.750Z,15.38
2018-12-25T15:53:50.525Z,14.95
2018-12-25T15:56:20.091Z,16.07
2018-12-25T15:58:49.424Z,14.25
2018-12-25T16:01:18.638Z,14.53
2018-12-25T16:03:47.898Z,17.25
2018-12-25T16:06:17.320Z,21.90
2018-12-25T16:08:46.595Z,19.77
2018-12-25T16:11:16.764Z,18.48
2018-12-25T16:13:46.391Z,17.57
2018-12-25T16:16:15.911Z,18.95
2018-12-25T16:18:45.105Z,15.23
2018-12-25T16:21:14.379Z,22.27
2018-12-25T16:23:45.438Z,20.40
2018-12-25T16:26:14.605Z,21.65
2018-12-25T16:28:44.345Z,21.35
2018-12-25T16:31:13.593Z,21.00
2018-12-25T16:33:42.767Z,21.27
2018-12-25T16:36:11.963Z,20.17
2018-12-25T16:38:41.152Z,21.55
2018-12-25T16:41:10.333Z,22.07
2018-12-25T16:43:39.618Z,25.35
2018-12-25T16:46:09.099Z,20.50
2018-12-25T16:48:38.369Z,22.00
2018-12-25T16:51:07.553Z,23.05
2018-12-25T16:53:36.796Z,23.62
2018-12-25T16:56:08.941Z,28.55
2018-12-25T16:58:38.216Z,25.65
2018-12-25T17:01:07.469Z,28.55
2018-12-25T17:03:36.825Z,26.07
2018-12-25T17:06:06.015Z,23.75
2018-12-25T17:08:35.175Z,22.67
2018-12-25T17:11:04.431Z,26.17
2018-12-25T17:13:34.952Z,26.45
2018-12-25T17:16:04.456Z,25.27
2018-12-25T17:18:33.618Z,27.00
2018-12-25T17:21:02.979Z,25.25
2018-12-25T17:23:32.211Z,24.43
2018-12-25T17:26:01.537Z,22.35
2018-12-25T17:28:30.735Z,23.12
2018-12-25T17:30:59.987Z,23.50
2018-12-25T17:33:29.153Z,28.52
2018-12-25T17:35:58.347Z,27.22
2018-12-25T17:38:27.870Z,25.60
2018-12-25T17:40:57.199Z,31.10
2018-12-25T17:43:26.409Z,32.33
2018-12-25T17:45:55.572Z,45.85
2018-12-25T17:48:24.830Z,37.13
2018-12-25T17:50:54.086Z,36.70
2018-12-25T17:53:23.277Z,33.35
2018-12-25T17:55:52.435Z,33.30
2018-12-25T17:58:21.840Z,32.28
2018-12-25T18:00:51.006Z,29.37
2018-12-25T18:03:20.180Z,30.72
2018-12-25T18:05:49.376Z,31.00
2018-12-25T18:08:18.527Z,27.98
2018-12-25T18:10:47.875Z,30.12
2018-12-25T18:13:17.421Z,29.82
2018-12-25T18:15:46.660Z,30.23
2018-12-25T18:18:15.990Z,27.50
2018-12-25T18:20:45.188Z,28.47
2018-12-25T18:23:14.343Z,27.77
2018-12-25T18:25:43.528Z,27.32
2018-12-25T18:28:12.793Z,27.52
2018-12-25T18:30:41.950Z,27.00
2018-12-25T18:33:11.181Z,26.07
2018-12-25T18:35:40.439Z,30.20
2018-12-25T18:38:11.444Z,28.07
2018-12-25T18:40:40.664Z,30.27
2018-12-25T18:43:09.875Z,27.35
2018-12-25T18:45:41.428Z,25.85
2018-12-25T18:48:10.739Z,27.48
2018-12-25T18:50:40.081Z,26.40
2018-12-25T18:53:09.334Z,25.90
2018-12-25T18:55:40.238Z,25.82
2018-12-25T18:58:09.509Z,26.57
2018-12-25T19:00:41.636Z,24.47
2018-12-25T19:03:10.884Z,28.55
2018-12-25T19:05:40.180Z,29.98
2018-12-25T19:08:09.442Z,30.52
2018-12-25T19:10:38.692Z,29.40
2018-12-25T19:13:07.927Z,30.27
2018-12-25T19:15:37.484Z,27.22
2018-12-25T19:18:09.711Z,28.95
2018-12-25T19:20:38.941Z,29.02
2018-12-25T19:23:08.202Z,29.45
2018-12-25T19:25:37.447Z,28.67
2018-12-25T19:28:06.710Z,30.60
2018-12-25T19:30:38.076Z,28.95
2018-12-25T19:33:07.543Z,28.27
2018-12-25T19:35:36.995Z,29.82
2018-12-25T19:38:06.160Z,30.48
2018-12-25T19:40:35.613Z,29.92
2018-12-25T19:43:04.870Z,29.57
2018-12-25T19:45:34.716Z,29.87
2018-12-25T19:48:04.017Z,31.02
2018-12-25T19:50:33.506Z,30.70
2018-12-25T19:53:02.759Z,30.88
2018-12-25T19:55:32.026Z,25.95
2018-12-25T19:58:01.302Z,35.60
2018-12-25T20:00:30.475Z,31.52
2018-12-25T20:03:05.671Z,29.85
2018-12-25T20:06:19.029Z,31.70
2018-12-25T20:09:35.025Z,32.00
2018-12-25T20:12:34.503Z,29.65
2018-12-25T20:15:40.962Z,29.98
2018-12-25T20:19:16.779Z,32.17
2018-12-25T20:22:26.316Z,38.17
2018-12-25T20:25:42.889Z,37.70
2018-12-25T20:28:56.503Z,40.88
2018-12-25T20:32:04.552Z,36.93
2018-12-25T20:35:09.463Z,36.75
2018-12-25T20:38:14.254Z,36.70
2018-12-25T20:41:25.320Z,37.25
2018-12-25T20:44:34.082Z,35.05
2018-12-25T20:47:37.121Z,34.78
2018-12-25T20:50:42.181Z,30.70
2018-12-25T20:54:06.314Z,33.53
2018-12-25T20:57:17.197Z,31.70
2018-12-25T21:00:23.337Z,30.45
2018-12-25T21:03:28.395Z,33.08
2018-12-25T21:06:47.868Z,34.60
2018-12-25T21:09:54.085Z,34.63
2018-12-25T21:13:03.698Z,33.60
2018-12-25T21:16:13.041Z,37.38
2018-12-25T21:19:28.318Z,31.45
2018-12-25T21:22:44.695Z,34.03
2018-12-25T21:25:51.048Z,35.05
2018-12-25T21:28:18.810Z,38.08
2018-12-25T21:40:32.269Z,34.20
2018-12-25T21:43:01.585Z,35.52
2018-12-25T21:45:30.955Z,35.05
2018-12-25T21:48:01.022Z,36.80
2018-12-25T21:50:30.503Z,37.40
2018-12-25T21:52:59.784Z,37.17
2018-12-25T21:55:30.788Z,36.73
2018-12-25T21:58:00.656Z,36.55
2018-12-25T22:00:32.572Z,38.38
2018-12-25T22:03:02.462Z,39.20
2018-12-25T22:05:34.628Z,35.80
2018-12-25T22:08:04.034Z,34.10
2018-12-25T22:10:33.350Z,35.55
2018-12-25T22:13:03.066Z,34.98
2018-12-25T22:15:32.334Z,39.53
2018-12-25T22:18:01.706Z,38.55
2018-12-25T22:20:34.024Z,37.90
2018-12-25T22:23:03.467Z,39.90
2018-12-25T22:25:32.869Z,36.42
2018-12-25T22:28:02.226Z,36.25
2018-12-25T22:30:31.526Z,37.15
2018-12-25T22:33:00.863Z,35.90
2018-12-25T22:35:30.217Z,33.63
2018-12-25T22:37:59.598Z,33.63
2018-12-25T22:40:28.970Z,33.63
2018-12-25T22:42:58.242Z,37.40
2018-12-25T22:45:27.712Z,35.63
2018-12-25T22:48:00.358Z,31.12
2018-12-25T22:50:30.197Z,35.95
2018-12-25T22:52:59.770Z,35.20
2018-12-25T22:55:35.861Z,35.65
2018-12-25T22:58:02.530Z,33.85
2018-12-25T23:00:32.340Z,32.50
2018-12-25T23:03:01.716Z,35.33
2018-12-25T23:05:31.070Z,32.38
2018-12-25T23:08:00.377Z,34.53
2018-12-25T23:10:30.470Z,36.33
2018-12-25T23:12:59.862Z,35.25
2018-12-25T23:15:29.130Z,33.58
2018-12-25T23:17:59.532Z,37.60
2018-12-25T23:20:29.133Z,35.70
2018-12-25T23:22:58.769Z,35.88
2018-12-25T23:25:28.094Z,35.10
2018-12-25T23:27:57.450Z,34.43
2018-12-25T23:30:27.841Z,36.80
2018-12-25T23:32:57.223Z,35.17
2018-12-25T23:35:26.554Z,36.48
2018-12-25T23:37:55.956Z,34.95
2018-12-25T23:40:25.603Z,35.33
2018-12-25T23:42:54.984Z,35.20
2018-12-25T23:45:24.333Z,32.58
2018-12-25T23:47:53.651Z,31.80
2018-12-25T23:50:22.931Z,33.02
2018-12-25T23:52:52.328Z,33.85
2018-12-25T23:55:21.636Z,33.73
2018-12-25T23:57:50.983Z,33.33
